EDFM/MHG METAR and TAF weather

Enter ICAO airport designator
Station Type Date Time Source
EDFM METAR 2022/07/03 13:20 UTC NOAA

EDFM 031320Z 23006KT 160V300 CAVOK 29/11 Q1017


Station Type Date Time Source
EDFM Decoded METAR 2022/07/03 13:20 UTC NOAA

Baden Wurttemberg, Neuostheim, Germany (EDFM) 49-28-21N 008-30-56E
Jul 03, 2022 - 09:20 AM EDT / 2022.07.03 1320 UTC
Wind: from the SW (230 degrees) at 7 MPH (6 KT) (direction variable):0
Visibility: greater than 7 mile(s):0
Temperature: 84 F (29 C)
Dew Point: 51 F (11 C)
Relative Humidity: 32%
Pressure (altimeter): 30.03 in. Hg (1017 hPa)
ob: EDFM 031320Z 23006KT 160V300 CAVOK 29/11 Q1017
cycle: 13

Station Type Date Time Source
EDFM TAF 2012/03/06 06:30 UTC NOAA

TAF EDFM 060519Z 0606/0621 15004KT 9999 FEW040

Example: see airport list